CheckWX is a tool to help pilots better visualize weather data.  It is not intended as a substitute for an official pre-flight weather briefing.

21:08:28 UTC

KGCC METAR
Gillette-Campbell County Airport
Gillette, Wyoming, USA
Current

15 mins ago

KGCC 232053Z AUTO 16007G17KT 10SM OVC035 09/03 A3000 RMK AO2 SLP165 T00890028 56021
Observed
May-23 @ 20:53 UTC
Wind
  • 160° at 7 KTS
  • Gusting to 17 KTS
Visibility
10 SM
Flight Rules
VFR
Cloud Levels
  • Overcast at 3,500' AGL
Temperature
C / 48°F
Dewpoint
C / 37°F
Humidity
66%
Altimeter
30" Hg
Pressure
1015.92 hPa
Previous

22 mins ago

KGCC 232046Z AUTO 14012KT 10SM BKN031 OVC039 09/03 A3001 RMK AO2 T00890033
Observed
May-23 @ 20:46 UTC
Wind
  • 140° at 12 KTS
Visibility
10 SM
Flight Rules
VFR
Cloud Levels
  • Broken at 3,100' AGL
  • Overcast at 3,900' AGL
Temperature
C / 48°F
Dewpoint
C / 37°F
Humidity
66%
Altimeter
30.01" Hg
Pressure
1016.22 hPa
Previous

2 hours ago

KGCC 231914Z AUTO 11011KT 10SM OVC028 09/03 A3002 RMK AO2 T00890033
Observed
May-23 @ 19:14 UTC
Wind
  • 110° at 11 KTS
Visibility
10 SM
Flight Rules
MVFR
Cloud Levels
  • Overcast at 2,800' AGL
Temperature
C / 48°F
Dewpoint
C / 37°F
Humidity
66%
Altimeter
30.02" Hg
Pressure
1016.62 hPa